GMFM

Details ICAO GMFM (MEK)
Name BASSATINE
Region Morocco
Timezone Africa/Casablanca (UTC+0.0)
Plans Departing 1
Arriving 0
Stats Elevation 1,890 ft / 576 m (AMSL)
Location 33.878848° -5.515022°
Runways 2
Magnetic Variation 1.188° W
Sunrise 2017-12-14 07:20:34 UTC / 2017-12-14 07:20:34 Local
Sunset 2017-12-14 17:15:43 UTC / 2017-12-14 17:15:43 Local
Advertisement - Login to hide

Runways

ID Width Length Bearing (true) Bearing (mag) Surface Threshold Offset Overrun Length
08 164 ft / 50 m 6,446 ft / 1,965 m 78.51° 79.70° Asphalt 0 ft / 0 m 0 ft / 0 m
09 164 ft / 50 m 9,272 ft / 2,826 m 83.84° 85.03° Asphalt 495 ft / 151 m 250 ft / 76 m
26 164 ft / 50 m 6,446 ft / 1,965 m 258.52° 259.71° Asphalt 0 ft / 0 m 0 ft / 0 m
27 164 ft / 50 m 9,272 ft / 2,826 m 263.85° 265.04° Asphalt 0 ft / 0 m 0 ft / 0 m

Map

Weather


0- 5 10 15 20 25 30 35+ Temperature / ° C

Clouds and Precipitation
Forecast for 2017-12-14 06:00 UTC. Updated an hour ago

Ground ~20,000 ft ~40,000 ft Winds

METAR

GMFM 140600Z 16005KT 8000 FEW010 04/04 Q1027 NOSIG

TAF

TAF GMFM 140500Z 1406/1512 12006KT 8000 NSC PROB40 TEMPO 1406/1411 4000 BR SCT010 BECMG 1414/1418 32010KT CAVOK BECMG 1422/1502 VRB02KT
Warning: Do not use this data for real-world aviation or navigation. No guarantee of current accuracy is given.